Accueil
METAR-TAF:

METAR-TAF

Aéroports :

Arctic Village, Alaska, États-Unis

latitude: 68-06-52N, longitude: 145-34-45W, altitude: 638 m

Observation

Le bulletin a été fait il y a 17 minutes, à 05:56 UTC
Vent 3 kt de ouest/nord-ouest
Température -27°C
Humidité 83%
Pression 1002 hPa
Visibilité: 16.1 km
Ciel clair

METAR: PARC 080556Z AUTO 29003KT 10SM CLR M27/M29 A2958 RMK AO2 SLP122 T12671294 11256 21311 55000 FZRANO

Heure: 21:13 (06:13 UTC)


TAF: absent

Observations et prévisions météorologiques de plus de 4000 aéroports (messages METAR et TAF).

Les stations disponibles sont représentées par des disques jaunes et rouges sur la carte.

Passer la souris dessus pour voir le nom de la station.

Cliquer dessus pour voir les observations et prévisions météorologiques.

Pour changer de carte: cliquez sur les boutons verts avec une croix noire pour zoomer, sur le bouton vert avec un tiret pour effectuer un zoom arrière, ou sur les flèches vertes pour les cartes adjacentes.


METAR-TAF: